Terminal Aerodrome Forecast
Issued by NWS Cleveland, OH

Home | Current Version | Previous Version | Graphics & Text | Print | Product List | Glossary Off
Versions: 1 2 3 4 5 6 7 8 9 10 11 12 13 14 15 16

000
FTUS41 KCLE 240522
TAFYNG
TAF
KYNG 240522Z 2406/2506 27008KT P6SM SCT015 BKN020
      TEMPO 2406/2408 5SM -SHRA BR BKN015
     FM240800 27009KT P6SM SCT060
     FM241600 27012G22KT P6SM BKN045
     FM242300 27008KT P6SM BKN045=

USA.gov is the U.S. government's official web portal to all federal, state and local government web resources and services.